sensor_id;sensor_type;location;lat;lon;timestamp;pressure;altitude;pressure_sealevel;temperature;humidity
56721;BME280;53183;47.412;18.884;2022-11-10T00:02:09;99553.84;;;9.79;100.00
56721;BME280;53183;47.412;18.884;2022-11-10T00:04:54;99557.97;;;9.84;100.00
56721;BME280;53183;47.412;18.884;2022-11-10T00:07:40;99564.19;;;10.01;100.00
56721;BME280;53183;47.412;18.884;2022-11-10T00:10:26;99561.16;;;10.08;100.00
56721;BME280;53183;47.412;18.884;2022-11-10T00:13:12;99561.94;;;10.10;100.00
56721;BME280;53183;47.412;18.884;2022-11-10T00:15:59;99563.09;;;10.05;100.00
56721;BME280;53183;47.412;18.884;2022-11-10T00:19:03;99562.78;;;9.94;100.00
56721;BME280;53183;47.412;18.884;2022-11-10T00:21:49;99565.09;;;9.82;100.00
56721;BME280;53183;47.412;18.884;2022-11-10T00:24:34;99570.12;;;9.87;100.00
56721;BME280;53183;47.412;18.884;2022-11-10T00:27:19;99567.69;;;9.84;100.00
56721;BME280;53183;47.412;18.884;2022-11-10T00:30:05;99574.25;;;9.75;100.00
56721;BME280;53183;47.412;18.884;2022-11-10T00:32:50;99577.03;;;9.72;100.00
56721;BME280;53183;47.412;18.884;2022-11-10T00:35:36;99573.75;;;9.67;100.00
56721;BME280;53183;47.412;18.884;2022-11-10T00:38:21;99577.28;;;9.68;100.00
56721;BME280;53183;47.412;18.884;2022-11-10T00:41:06;99569.34;;;9.68;100.00
56721;BME280;53183;47.412;18.884;2022-11-10T00:43:52;99568.16;;;9.56;100.00
56721;BME280;53183;47.412;18.884;2022-11-10T00:46:37;99561.09;;;9.56;100.00
56721;BME280;53183;47.412;18.884;2022-11-10T00:49:22;99576.88;;;9.58;100.00
56721;BME280;53183;47.412;18.884;2022-11-10T00:52:07;99568.53;;;9.48;100.00
56721;BME280;53183;47.412;18.884;2022-11-10T00:54:53;99576.44;;;9.48;100.00
56721;BME280;53183;47.412;18.884;2022-11-10T00:57:38;99571.22;;;9.47;100.00
56721;BME280;53183;47.412;18.884;2022-11-10T01:00:23;99561.06;;;9.39;100.00
56721;BME280;53183;47.412;18.884;2022-11-10T01:03:16;99565.75;;;9.51;100.00
56721;BME280;53183;47.412;18.884;2022-11-10T01:06:06;99563.31;;;9.47;100.00
56721;BME280;53183;47.412;18.884;2022-11-10T01:08:51;99566.75;;;9.49;100.00
56721;BME280;53183;47.412;18.884;2022-11-10T01:11:37;99563.25;;;9.48;100.00
56721;BME280;53183;47.412;18.884;2022-11-10T01:14:22;99565.75;;;9.51;100.00
56721;BME280;53183;47.412;18.884;2022-11-10T01:17:07;99566.59;;;9.52;100.00
56721;BME280;53183;47.412;18.884;2022-11-10T01:19:53;99561.19;;;9.55;100.00
56721;BME280;53183;47.412;18.884;2022-11-10T01:22:38;99562.03;;;9.55;100.00
56721;BME280;53183;47.412;18.884;2022-11-10T01:25:24;99568.72;;;9.62;100.00
56721;BME280;53183;47.412;18.884;2022-11-10T01:28:10;99562.50;;;9.63;100.00
56721;BME280;53183;47.412;18.884;2022-11-10T01:31:00;99565.94;;;9.66;100.00
56721;BME280;53183;47.412;18.884;2022-11-10T01:33:45;99570.75;;;9.75;100.00
56721;BME280;53183;47.412;18.884;2022-11-10T01:36:31;99565.94;;;9.66;100.00
56721;BME280;53183;47.412;18.884;2022-11-10T01:39:16;99571.50;;;9.59;100.00
56721;BME280;53183;47.412;18.884;2022-11-10T01:42:02;99574.28;;;9.56;100.00
56721;BME280;53183;47.412;18.884;2022-11-10T01:48:10;99571.44;;;9.61;100.00
56721;BME280;53183;47.412;18.884;2022-11-10T01:51:07;99567.22;;;9.57;100.00
56721;BME280;53183;47.412;18.884;2022-11-10T01:54:03;99569.00;;;9.56;100.00
56721;BME280;53183;47.412;18.884;2022-11-10T01:56:56;99566.47;;;9.55;100.00
56721;BME280;53183;47.412;18.884;2022-11-10T01:59:45;99575.28;;;9.54;100.00
56721;BME280;53183;47.412;18.884;2022-11-10T02:02:45;99579.66;;;9.55;100.00
56721;BME280;53183;47.412;18.884;2022-11-10T02:05:32;99578.16;;;9.49;100.00
56721;BME280;53183;47.412;18.884;2022-11-10T02:08:18;99582.34;;;9.53;100.00
56721;BME280;53183;47.412;18.884;2022-11-10T02:11:03;99577.16;;;9.52;100.00
56721;BME280;53183;47.412;18.884;2022-11-10T02:13:49;99584.41;;;9.47;100.00
56721;BME280;53183;47.412;18.884;2022-11-10T02:16:36;99580.22;;;9.43;100.00
56721;BME280;53183;47.412;18.884;2022-11-10T02:19:24;99583.00;;;9.39;100.00
56721;BME280;53183;47.412;18.884;2022-11-10T02:22:09;99583.81;;;9.42;100.00
56721;BME280;53183;47.412;18.884;2022-11-10T02:24:55;99595.13;;;9.44;100.00
56721;BME280;53183;47.412;18.884;2022-11-10T02:27:41;99597.84;;;9.42;100.00
56721;BME280;53183;47.412;18.884;2022-11-10T02:30:26;99593.41;;;9.43;100.00
56721;BME280;53183;47.412;18.884;2022-11-10T02:33:12;99605.66;;;9.44;100.00
56721;BME280;53183;47.412;18.884;2022-11-10T02:35:57;99606.19;;;9.52;100.00
56721;BME280;53183;47.412;18.884;2022-11-10T02:38:42;99605.37;;;9.50;100.00
56721;BME280;53183;47.412;18.884;2022-11-10T02:41:28;99606.22;;;9.50;100.00
56721;BME280;53183;47.412;18.884;2022-11-10T02:44:13;99602.88;;;9.47;100.00
56721;BME280;53183;47.412;18.884;2022-11-10T02:46:58;99603.69;;;9.49;100.00
56721;BME280;53183;47.412;18.884;2022-11-10T02:49:44;99600.06;;;9.51;100.00
56721;BME280;53183;47.412;18.884;2022-11-10T02:52:29;99612.16;;;9.55;100.00
56721;BME280;53183;47.412;18.884;2022-11-10T02:55:14;99601.47;;;9.58;100.00
56721;BME280;53183;47.412;18.884;2022-11-10T02:58:00;99609.22;;;9.61;100.00
56721;BME280;53183;47.412;18.884;2022-11-10T03:00:45;99614.22;;;9.68;100.00
56721;BME280;53183;47.412;18.884;2022-11-10T03:03:32;99625.81;;;9.82;100.00
56721;BME280;53183;47.412;18.884;2022-11-10T03:06:18;99623.09;;;9.84;100.00
56721;BME280;53183;47.412;18.884;2022-11-10T03:09:10;99634.81;;;9.78;100.00
56721;BME280;53183;47.412;18.884;2022-11-10T03:11:56;99640.84;;;9.80;100.00
56721;BME280;53183;47.412;18.884;2022-11-10T03:14:41;99643.66;;;9.77;100.00
56721;BME280;53183;47.412;18.884;2022-11-10T03:17:26;99644.38;;;9.81;100.00
56721;BME280;53183;47.412;18.884;2022-11-10T03:20:12;99645.94;;;9.85;100.00
56721;BME280;53183;47.412;18.884;2022-11-10T03:23:07;99647.34;;;9.73;100.00
56721;BME280;53183;47.412;18.884;2022-11-10T03:25:52;99643.66;;;9.77;100.00
56721;BME280;53183;47.412;18.884;2022-11-10T03:28:38;99638.44;;;9.76;100.00
56721;BME280;53183;47.412;18.884;2022-11-10T03:31:23;99639.00;;;9.82;100.00
56721;BME280;53183;47.412;18.884;2022-11-10T03:34:08;99647.84;;;9.81;100.00
56721;BME280;53183;47.412;18.884;2022-11-10T03:36:54;99649.03;;;9.93;100.00
56721;BME280;53183;47.412;18.884;2022-11-10T03:39:39;99651.53;;;9.96;100.00
56721;BME280;53183;47.412;18.884;2022-11-10T03:42:24;99650.50;;;9.81;100.00
56721;BME280;53183;47.412;18.884;2022-11-10T03:45:12;99649.28;;;9.70;100.00
56721;BME280;53183;47.412;18.884;2022-11-10T03:47:58;99658.00;;;9.72;100.00
56721;BME280;53183;47.412;18.884;2022-11-10T03:50:43;99664.31;;;9.86;100.00
56721;BME280;53183;47.412;18.884;2022-11-10T03:53:29;99659.56;;;9.76;100.00
56721;BME280;53183;47.412;18.884;2022-11-10T03:56:14;99658.72;;;9.75;100.00
56721;BME280;53183;47.412;18.884;2022-11-10T03:59:00;99657.28;;;9.68;100.00
56721;BME280;53183;47.412;18.884;2022-11-10T04:01:45;99662.28;;;9.55;100.00
56721;BME280;53183;47.412;18.884;2022-11-10T04:04:31;99672.28;;;9.68;100.00
56721;BME280;53183;47.412;18.884;2022-11-10T04:07:35;99666.50;;;9.59;100.00
56721;BME280;53183;47.412;18.884;2022-11-10T04:10:39;99680.97;;;9.70;100.00
56721;BME280;53183;47.412;18.884;2022-11-10T04:13:24;99684.03;;;9.60;100.00
56721;BME280;53183;47.412;18.884;2022-11-10T04:16:28;99685.75;;;9.61;100.00
56721;BME280;53183;47.412;18.884;2022-11-10T04:19:14;99680.25;;;9.66;100.00
56721;BME280;53183;47.412;18.884;2022-11-10T04:21:59;99679.41;;;9.66;100.00
56721;BME280;53183;47.412;18.884;2022-11-10T04:24:45;99687.44;;;9.62;100.00
56721;BME280;53183;47.412;18.884;2022-11-10T04:27:30;99686.66;;;9.60;100.00
56721;BME280;53183;47.412;18.884;2022-11-10T04:30:16;99687.09;;;9.70;100.00
56721;BME280;53183;47.412;18.884;2022-11-10T04:33:01;99682.69;;;9.52;100.00
56721;BME280;53183;47.412;18.884;2022-11-10T04:35:46;99683.81;;;9.46;100.00
56721;BME280;53183;47.412;18.884;2022-11-10T04:38:32;99693.81;;;9.58;100.00
56721;BME280;53183;47.412;18.884;2022-11-10T04:41:17;99691.88;;;9.62;100.00
56721;BME280;53183;47.412;18.884;2022-11-10T04:44:03;99694.56;;;9.60;100.00
56721;BME280;53183;47.412;18.884;2022-11-10T04:46:49;99697.22;;;9.60;100.00
56721;BME280;53183;47.412;18.884;2022-11-10T04:49:34;99695.47;;;9.61;100.00
56721;BME280;53183;47.412;18.884;2022-11-10T04:52:19;99697.53;;;9.54;100.00
56721;BME280;53183;47.412;18.884;2022-11-10T04:55:05;99703.66;;;9.55;100.00
56721;BME280;53183;47.412;18.884;2022-11-10T04:57:51;99713.13;;;9.59;100.00
56721;BME280;53183;47.412;18.884;2022-11-10T05:00:36;99718.19;;;9.63;100.00
56721;BME280;53183;47.412;18.884;2022-11-10T05:03:22;99724.66;;;9.56;100.00
56721;BME280;53183;47.412;18.884;2022-11-10T05:06:08;99726.47;;;9.56;100.00
56721;BME280;53183;47.412;18.884;2022-11-10T05:08:54;99722.97;;;9.55;100.00
56721;BME280;53183;47.412;18.884;2022-11-10T05:11:39;99726.03;;;9.46;100.00
56721;BME280;53183;47.412;18.884;2022-11-10T05:14:24;99730.44;;;9.46;100.00
56721;BME280;53183;47.412;18.884;2022-11-10T05:17:10;99728.66;;;9.46;100.00
56721;BME280;53183;47.412;18.884;2022-11-10T05:19:55;99738.41;;;9.44;100.00
56721;BME280;53183;47.412;18.884;2022-11-10T05:22:43;99736.66;;;9.45;100.00
56721;BME280;53183;47.412;18.884;2022-11-10T05:25:35;99737.25;;;9.51;100.00
56721;BME280;53183;47.412;18.884;2022-11-10T05:28:21;99743.50;;;9.49;100.00
56721;BME280;53183;47.412;18.884;2022-11-10T05:31:08;99738.28;;;9.47;100.00
56721;BME280;53183;47.412;18.884;2022-11-10T05:33:53;99743.59;;;9.66;100.00
56721;BME280;53183;47.412;18.884;2022-11-10T05:36:39;99747.91;;;9.67;100.00
56721;BME280;53183;47.412;18.884;2022-11-10T05:39:24;99752.72;;;9.78;100.00
56721;BME280;53183;47.412;18.884;2022-11-10T05:42:09;99752.72;;;9.78;100.00
56721;BME280;53183;47.412;18.884;2022-11-10T05:44:54;99753.84;;;9.72;100.00
56721;BME280;53183;47.412;18.884;2022-11-10T05:47:40;99758.44;;;9.69;100.00
56721;BME280;53183;47.412;18.884;2022-11-10T05:50:26;99763.84;;;9.66;100.00
56721;BME280;53183;47.412;18.884;2022-11-10T05:53:11;99777.84;;;9.68;100.00
56721;BME280;53183;47.412;18.884;2022-11-10T05:55:57;99778.69;;;9.68;100.00
56721;BME280;53183;47.412;18.884;2022-11-10T05:58:42;99777.03;;;9.66;100.00
56721;BME280;53183;47.412;18.884;2022-11-10T06:01:28;99794.94;;;9.59;100.00
56721;BME280;53183;47.412;18.884;2022-11-10T06:04:13;99794.84;;;9.60;100.00
56721;BME280;53183;47.412;18.884;2022-11-10T06:06:59;99798.16;;;9.66;100.00
56721;BME280;53183;47.412;18.884;2022-11-10T06:09:44;99800.66;;;9.69;100.00
56721;BME280;53183;47.412;18.884;2022-11-10T06:12:30;99801.78;;;9.63;100.00
56721;BME280;53183;47.412;18.884;2022-11-10T06:15:16;99809.19;;;9.74;100.00
56721;BME280;53183;47.412;18.884;2022-11-10T06:18:01;99818.56;;;9.81;100.00
56721;BME280;53183;47.412;18.884;2022-11-10T06:20:47;99823.13;;;9.77;100.00
56721;BME280;53183;47.412;18.884;2022-11-10T06:23:32;99825.03;;;9.74;100.00
56721;BME280;53183;47.412;18.884;2022-11-10T06:26:18;99831.63;;;9.84;100.00
56721;BME280;53183;47.412;18.884;2022-11-10T06:29:03;99837.19;;;9.78;100.00
56721;BME280;53183;47.412;18.884;2022-11-10T06:31:49;99835.53;;;9.75;100.00
56721;BME280;53183;47.412;18.884;2022-11-10T06:34:34;99839.81;;;9.78;100.00
56721;BME280;53183;47.412;18.884;2022-11-10T06:37:19;99836.16;;;9.80;100.00
56721;BME280;53183;47.412;18.884;2022-11-10T06:40:07;99843.09;;;9.64;100.00
56721;BME280;53183;47.412;18.884;2022-11-10T06:42:53;99847.94;;;9.73;100.00
56721;BME280;53183;47.412;18.884;2022-11-10T06:45:39;99852.09;;;9.79;100.00
56721;BME280;53183;47.412;18.884;2022-11-10T06:48:24;99855.59;;;9.79;100.00
56721;BME280;53183;47.412;18.884;2022-11-10T06:51:10;99862.88;;;9.74;100.00
56721;BME280;53183;47.412;18.884;2022-11-10T06:53:55;99865.03;;;9.85;100.00
56721;BME280;53183;47.412;18.884;2022-11-10T06:56:41;99870.69;;;9.76;100.00
56721;BME280;53183;47.412;18.884;2022-11-10T06:59:26;99884.56;;;10.00;100.00
56721;BME280;53183;47.412;18.884;2022-11-10T07:02:14;99894.59;;;10.12;100.00
56721;BME280;53183;47.412;18.884;2022-11-10T07:05:00;99891.53;;;10.21;100.00
56721;BME280;53183;47.412;18.884;2022-11-10T07:07:45;99897.00;;;10.17;100.00
56721;BME280;53183;47.412;18.884;2022-11-10T07:10:32;99900.59;;;10.16;100.00
56721;BME280;53183;47.412;18.884;2022-11-10T07:13:18;99902.47;;;10.14;100.00
56721;BME280;53183;47.412;18.884;2022-11-10T07:16:07;99904.44;;;10.08;100.00
56721;BME280;53183;47.412;18.884;2022-11-10T07:18:53;99903.66;;;10.25;100.00
56721;BME280;53183;47.412;18.884;2022-11-10T07:21:40;99908.63;;;10.33;100.00
56721;BME280;53183;47.412;18.884;2022-11-10T07:24:27;99905.97;;;10.33;100.00
56721;BME280;53183;47.412;18.884;2022-11-10T07:27:14;99908.78;;;10.30;100.00
56721;BME280;53183;47.412;18.884;2022-11-10T07:30:00;99912.06;;;10.35;100.00
56721;BME280;53183;47.412;18.884;2022-11-10T07:32:45;99910.50;;;10.50;100.00
56721;BME280;53183;47.412;18.884;2022-11-10T07:35:32;99917.41;;;10.52;100.00
56721;BME280;53183;47.412;18.884;2022-11-10T07:38:18;99911.78;;;10.60;100.00
56721;BME280;53183;47.412;18.884;2022-11-10T07:41:04;99917.13;;;10.59;100.00
56721;BME280;53183;47.412;18.884;2022-11-10T07:43:49;99924.50;;;10.71;100.00
56721;BME280;53183;47.412;18.884;2022-11-10T07:46:35;99927.97;;;10.71;100.00
56721;BME280;53183;47.412;18.884;2022-11-10T07:49:20;99941.16;;;10.73;100.00
56721;BME280;53183;47.412;18.884;2022-11-10T07:52:05;99934.84;;;10.75;100.00
56721;BME280;53183;47.412;18.884;2022-11-10T07:54:51;99936.19;;;10.65;100.00
56721;BME280;53183;47.412;18.884;2022-11-10T07:57:36;99932.91;;;10.79;100.00
56721;BME280;53183;47.412;18.884;2022-11-10T08:00:21;99931.31;;;10.94;100.00
56721;BME280;53183;47.412;18.884;2022-11-10T08:03:15;99934.66;;;10.97;100.00
56721;BME280;53183;47.412;18.884;2022-11-10T08:06:01;99938.44;;;11.11;100.00
56721;BME280;53183;47.412;18.884;2022-11-10T08:08:46;99943.56;;;11.14;100.00
56721;BME280;53183;47.412;18.884;2022-11-10T08:11:31;99954.41;;;11.09;100.00
56721;BME280;53183;47.412;18.884;2022-11-10T08:14:17;99948.28;;;11.26;100.00
56721;BME280;53183;47.412;18.884;2022-11-10T08:17:02;99956.47;;;11.39;100.00
56721;BME280;53183;47.412;18.884;2022-11-10T08:19:47;99964.56;;;11.53;100.00
56721;BME280;53183;47.412;18.884;2022-11-10T08:22:33;99970.41;;;11.60;99.38
56721;BME280;53183;47.412;18.884;2022-11-10T08:25:18;99964.97;;;11.45;99.29
56721;BME280;53183;47.412;18.884;2022-11-10T08:28:05;99957.53;;;11.35;100.00
56721;BME280;53183;47.412;18.884;2022-11-10T08:30:52;99953.66;;;11.42;100.00
56721;BME280;53183;47.412;18.884;2022-11-10T08:33:37;99958.56;;;11.32;98.76
56721;BME280;53183;47.412;18.884;2022-11-10T08:36:22;99970.00;;;11.33;99.94
56721;BME280;53183;47.412;18.884;2022-11-10T08:39:07;99979.19;;;11.07;100.00
56721;BME280;53183;47.412;18.884;2022-11-10T08:41:53;99981.25;;;11.19;100.00
56721;BME280;53183;47.412;18.884;2022-11-10T08:44:38;100001.53;;;11.18;98.63
56721;BME280;53183;47.412;18.884;2022-11-10T08:47:23;100013.28;;;11.13;99.02
56721;BME280;53183;47.412;18.884;2022-11-10T08:50:09;100014.75;;;11.18;99.21
56721;BME280;53183;47.412;18.884;2022-11-10T08:52:54;100017.78;;;11.30;97.74
56721;BME280;53183;47.412;18.884;2022-11-10T08:55:41;100023.91;;;11.30;97.33
56721;BME280;53183;47.412;18.884;2022-11-10T08:58:27;100036.56;;;11.42;97.15
56721;BME280;53183;47.412;18.884;2022-11-10T09:01:12;100035.06;;;11.18;97.20
56721;BME280;53183;47.412;18.884;2022-11-10T09:03:57;100033.50;;;11.33;95.99
56721;BME280;53183;47.412;18.884;2022-11-10T09:06:43;100037.28;;;11.27;95.49
56721;BME280;53183;47.412;18.884;2022-11-10T09:09:28;100026.28;;;11.54;95.05
56721;BME280;53183;47.412;18.884;2022-11-10T09:12:14;100036.91;;;11.71;93.36
56721;BME280;53183;47.412;18.884;2022-11-10T09:14:59;100043.22;;;12.05;90.67
56721;BME280;53183;47.412;18.884;2022-11-10T09:18:05;100039.81;;;11.84;92.42
56721;BME280;53183;47.412;18.884;2022-11-10T09:20:51;100044.13;;;11.67;95.17
56721;BME280;53183;47.412;18.884;2022-11-10T09:23:36;100045.78;;;11.70;93.99
56721;BME280;53183;47.412;18.884;2022-11-10T09:26:22;100052.50;;;11.77;93.52
56721;BME280;53183;47.412;18.884;2022-11-10T09:29:08;100045.06;;;11.85;92.37
56721;BME280;53183;47.412;18.884;2022-11-10T09:31:54;100045.25;;;11.81;92.74
56721;BME280;53183;47.412;18.884;2022-11-10T09:34:39;100052.78;;;11.71;93.68
56721;BME280;53183;47.412;18.884;2022-11-10T09:37:24;100056.06;;;11.76;94.36
56721;BME280;53183;47.412;18.884;2022-11-10T09:40:16;100065.31;;;11.86;92.85
56721;BME280;53183;47.412;18.884;2022-11-10T09:43:04;100068.38;;;11.77;94.70
56721;BME280;53183;47.412;18.884;2022-11-10T09:45:52;100065.53;;;11.82;94.62
56721;BME280;53183;47.412;18.884;2022-11-10T09:49:48;100069.16;;;11.79;95.38
56721;BME280;53183;47.412;18.884;2022-11-10T09:52:08;100078.25;;;11.73;94.93
56721;BME280;53183;47.412;18.884;2022-11-10T09:54:56;100077.87;;;11.81;93.98
56721;BME280;53183;47.412;18.884;2022-11-10T09:57:43;100081.47;;;11.80;96.09
56721;BME280;53183;47.412;18.884;2022-11-10T10:00:34;100079.75;;;11.62;95.61
56721;BME280;53183;47.412;18.884;2022-11-10T10:03:23;100089.66;;;11.76;95.37
56721;BME280;53183;47.412;18.884;2022-11-10T10:06:14;100095.66;;;11.79;95.65
56721;BME280;53183;47.412;18.884;2022-11-10T10:19:34;100094.16;;;12.10;95.52
56721;BME280;53183;47.412;18.884;2022-11-10T10:22:12;100109.50;;;12.38;94.57
56721;BME280;53183;47.412;18.884;2022-11-10T10:25:09;100103.81;;;12.28;93.81
56721;BME280;53183;47.412;18.884;2022-11-10T10:30:48;100098.31;;;12.66;91.08
56721;BME280;53183;47.412;18.884;2022-11-10T10:33:34;100089.44;;;12.67;93.32
56721;BME280;53183;47.412;18.884;2022-11-10T10:36:24;100099.59;;;12.41;93.09
56721;BME280;53183;47.412;18.884;2022-11-10T10:39:15;100097.34;;;12.51;99.22
56721;BME280;53183;47.412;18.884;2022-11-10T10:42:08;100105.41;;;13.48;96.69
56721;BME280;53183;47.412;18.884;2022-11-10T10:45:23;100098.44;;;13.93;93.95
56721;BME280;53183;47.412;18.884;2022-11-10T10:48:26;100091.00;;;13.68;87.56
56721;BME280;53183;47.412;18.884;2022-11-10T10:51:39;100099.50;;;13.58;87.86
56721;BME280;53183;47.412;18.884;2022-11-10T10:54:30;100108.00;;;13.49;88.48
56721;BME280;53183;47.412;18.884;2022-11-10T10:57:24;100106.06;;;13.20;87.85
56721;BME280;53183;47.412;18.884;2022-11-10T11:00:20;100109.19;;;12.95;90.55
56721;BME280;53183;47.412;18.884;2022-11-10T11:03:28;100112.44;;;13.33;87.90
56721;BME280;53183;47.412;18.884;2022-11-10T11:09:15;100114.41;;;13.29;87.50
56721;BME280;53183;47.412;18.884;2022-11-10T11:12:04;100123.59;;;13.40;87.85
56721;BME280;53183;47.412;18.884;2022-11-10T11:14:50;100135.91;;;13.41;88.19
56721;BME280;53183;47.412;18.884;2022-11-10T11:17:35;100140.88;;;13.47;87.10
56721;BME280;53183;47.412;18.884;2022-11-10T11:27:22;100127.00;;;14.19;87.32
56721;BME280;53183;47.412;18.884;2022-11-10T11:30:22;100128.59;;;13.92;83.75
56721;BME280;53183;47.412;18.884;2022-11-10T11:33:48;100138.22;;;13.78;85.70
56721;BME280;53183;47.412;18.884;2022-11-10T11:39:55;100138.22;;;13.47;86.33
56721;BME280;53183;47.412;18.884;2022-11-10T11:43:10;100149.03;;;13.44;88.28
56721;BME280;53183;47.412;18.884;2022-11-10T11:52:35;100156.56;;;13.67;89.17
56721;BME280;53183;47.412;18.884;2022-11-10T12:04:15;100144.81;;;13.06;92.08
56721;BME280;53183;47.412;18.884;2022-11-10T12:13:21;100157.22;;;14.18;84.94
56721;BME280;53183;47.412;18.884;2022-11-10T12:21:53;100160.34;;;13.79;83.73
56721;BME280;53183;47.412;18.884;2022-11-10T12:25:06;100160.66;;;13.08;86.03
56721;BME280;53183;47.412;18.884;2022-11-10T12:28:14;100161.19;;;12.81;92.62
56721;BME280;53183;47.412;18.884;2022-11-10T12:31:03;100156.44;;;12.71;90.19
56721;BME280;53183;47.412;18.884;2022-11-10T12:33:58;100165.56;;;12.65;90.71
56721;BME280;53183;47.412;18.884;2022-11-10T12:36:47;100173.69;;;12.44;91.28
56721;BME280;53183;47.412;18.884;2022-11-10T12:39:46;100180.09;;;12.40;90.56
56721;BME280;53183;47.412;18.884;2022-11-10T12:42:36;100172.22;;;11.84;92.25
56721;BME280;53183;47.412;18.884;2022-11-10T12:45:26;100173.66;;;11.91;92.31
56721;BME280;53183;47.412;18.884;2022-11-10T12:48:14;100188.94;;;11.86;93.54
56721;BME280;53183;47.412;18.884;2022-11-10T12:51:08;100176.81;;;11.61;96.04
56721;BME280;53183;47.412;18.884;2022-11-10T12:53:57;100180.47;;;11.59;98.07
56721;BME280;53183;47.412;18.884;2022-11-10T12:56:47;100180.63;;;11.56;97.55
56721;BME280;53183;47.412;18.884;2022-11-10T12:59:36;100181.19;;;11.43;99.64
56721;BME280;53183;47.412;18.884;2022-11-10T13:02:28;100184.66;;;11.25;100.00
56721;BME280;53183;47.412;18.884;2022-11-10T13:05:25;100184.44;;;11.11;100.00
56721;BME280;53183;47.412;18.884;2022-11-10T13:08:25;100183.63;;;11.09;100.00
56721;BME280;53183;47.412;18.884;2022-11-10T13:14:00;100185.97;;;11.16;100.00
56721;BME280;53183;47.412;18.884;2022-11-10T13:16:49;100184.97;;;11.19;100.00
56721;BME280;53183;47.412;18.884;2022-11-10T13:22:34;100200.97;;;11.16;100.00
56721;BME280;53183;47.412;18.884;2022-11-10T13:25:40;100195.03;;;11.11;100.00
56721;BME280;53183;47.412;18.884;2022-11-10T13:46:04;100214.28;;;11.33;99.14
56721;BME280;53183;47.412;18.884;2022-11-10T13:52:18;100230.31;;;11.30;98.51
56721;BME280;53183;47.412;18.884;2022-11-10T13:55:16;100238.53;;;11.24;98.57
56721;BME280;53183;47.412;18.884;2022-11-10T13:58:08;100233.50;;;11.18;100.00
56721;BME280;53183;47.412;18.884;2022-11-10T14:04:02;100236.22;;;11.16;100.00
56721;BME280;53183;47.412;18.884;2022-11-10T14:06:50;100240.78;;;11.13;100.00
56721;BME280;53183;47.412;18.884;2022-11-10T14:09:39;100250.56;;;11.11;100.00
56721;BME280;53183;47.412;18.884;2022-11-10T14:12:33;100244.34;;;11.12;100.00
56721;BME280;53183;47.412;18.884;2022-11-10T14:15:23;100250.56;;;11.11;100.00
56721;BME280;53183;47.412;18.884;2022-11-10T14:18:26;100254.88;;;11.13;100.00
56721;BME280;53183;47.412;18.884;2022-11-10T14:21:21;100266.66;;;11.06;100.00
56721;BME280;53183;47.412;18.884;2022-11-10T14:24:15;100256.78;;;11.10;100.00
56721;BME280;53183;47.412;18.884;2022-11-10T14:27:12;100265.84;;;11.04;100.00
56721;BME280;53183;47.412;18.884;2022-11-10T14:33:09;100272.00;;;11.04;100.00
56721;BME280;53183;47.412;18.884;2022-11-10T14:36:01;100271.53;;;10.95;100.00
56721;BME280;53183;47.412;18.884;2022-11-10T14:38:48;100273.56;;;10.88;100.00
56721;BME280;53183;47.412;18.884;2022-11-10T14:41:35;100280.66;;;10.88;100.00
56721;BME280;53183;47.412;18.884;2022-11-10T14:44:24;100280.41;;;10.94;100.00
56721;BME280;53183;47.412;18.884;2022-11-10T14:47:30;100288.47;;;10.91;100.00
56721;BME280;53183;47.412;18.884;2022-11-10T14:50:35;100298.63;;;10.79;100.00
56721;BME280;53183;47.412;18.884;2022-11-10T14:53:49;100290.03;;;10.74;100.00
56721;BME280;53183;47.412;18.884;2022-11-10T14:56:56;100295.31;;;10.74;100.00
56721;BME280;53183;47.412;18.884;2022-11-10T15:00:06;100292.88;;;10.70;100.00
56721;BME280;53183;47.412;18.884;2022-11-10T15:03:19;100301.53;;;10.73;100.00
56721;BME280;53183;47.412;18.884;2022-11-10T15:06:28;100303.56;;;10.67;100.00
56721;BME280;53183;47.412;18.884;2022-11-10T15:09:34;100310.69;;;10.65;100.00
56721;BME280;53183;47.412;18.884;2022-11-10T15:12:39;100314.38;;;10.61;100.00
56721;BME280;53183;47.412;18.884;2022-11-10T15:15:46;100318.22;;;10.53;100.00
56721;BME280;53183;47.412;18.884;2022-11-10T15:18:52;100315.00;;;10.45;100.00
56721;BME280;53183;47.412;18.884;2022-11-10T15:22:29;100315.69;;;10.50;100.00
56721;BME280;53183;47.412;18.884;2022-11-10T15:25:39;100315.44;;;10.56;100.00
56721;BME280;53183;47.412;18.884;2022-11-10T15:28:45;100319.47;;;10.65;100.00
56721;BME280;53183;47.412;18.884;2022-11-10T15:31:51;100322.31;;;10.61;100.00
56721;BME280;53183;47.412;18.884;2022-11-10T15:41:24;100340.12;;;10.55;100.00
56721;BME280;53183;47.412;18.884;2022-11-10T15:44:31;100345.66;;;10.49;100.00
56721;BME280;53183;47.412;18.884;2022-11-10T15:47:37;100345.81;;;10.46;100.00
56721;BME280;53183;47.412;18.884;2022-11-10T15:50:45;100338.22;;;10.59;100.00
56721;BME280;53183;47.412;18.884;2022-11-10T15:53:52;100352.69;;;10.50;100.00
56721;BME280;53183;47.412;18.884;2022-11-10T15:56:58;100343.91;;;10.50;100.00
56721;BME280;53183;47.412;18.884;2022-11-10T16:00:04;100352.13;;;10.42;100.00
56721;BME280;53183;47.412;18.884;2022-11-10T16:03:15;100346.59;;;10.48;100.00
56721;BME280;53183;47.412;18.884;2022-11-10T16:06:22;100362.03;;;10.37;100.00
56721;BME280;53183;47.412;18.884;2022-11-10T16:09:27;100361.09;;;10.38;100.00
56721;BME280;53183;47.412;18.884;2022-11-10T16:12:33;100360.34;;;10.35;100.00
56721;BME280;53183;47.412;18.884;2022-11-10T16:15:39;100357.12;;;10.26;100.00
56721;BME280;53183;47.412;18.884;2022-11-10T16:18:48;100365.63;;;10.35;100.00